CheckWX is a tool to help pilots better visualize weather data.  It is not intended as a substitute for an official pre-flight weather briefing.

04:38:33 UTC

KASD METAR
Slidell Airport
Slidell, Louisiana, USA
Current

46 mins ago

KASD 250353Z AUTO 14005KT 10SM CLR 22/19 A2992 RMK AO2 SLP133 T02170189
Observed
Apr-25 @ 03:53 UTC
Wind
  • 140° at 5 KTS
Visibility
10 SM
Flight Rules
VFR
Cloud Levels
  • Clear skies
Temperature
22°C / 72°F
Dewpoint
19°C / 66°F
Humidity
83%
Altimeter
29.92" Hg
Pressure
1013.22 hPa
Previous

2 hours ago

KASD 250253Z AUTO 15007KT 10SM CLR 22/19 A2991 RMK AO2 SLP130 T02170189 53002
Observed
Apr-25 @ 02:53 UTC
Wind
  • 150° at 7 KTS
Visibility
10 SM
Flight Rules
VFR
Cloud Levels
  • Clear skies
Temperature
22°C / 72°F
Dewpoint
19°C / 66°F
Humidity
83%
Altimeter
29.91" Hg
Pressure
1012.92 hPa
Previous

3 hours ago

KASD 250153Z AUTO 15006KT 10SM SCT033 22/19 A2991 RMK AO2 SLP129 T02220189
Observed
Apr-25 @ 01:53 UTC
Wind
  • 150° at 6 KTS
Visibility
10 SM
Flight Rules
VFR
Cloud Levels
  • Scattered at 3,300' AGL
Temperature
22°C / 72°F
Dewpoint
19°C / 66°F
Humidity
83%
Altimeter
29.91" Hg
Pressure
1012.92 hPa